< < Back
Terminal Aerodrome Forecast


Current Version              Previous Versions:   1  2  3  4  5  6  7  8  9  

Terminal Aerodrome Forecast

972
FTUS42 KFFC 301359 AAA
TAFPDK
TAF AMD
KPDK 301359Z 3014/3112 35005KT P6SM FEW040
     FM301700 34007KT P6SM VCSH BKN050
      TEMPO 3018/3021 VRB10G20KT 6SM -TSRA BKN040CB
     FM310000 34004KT P6SM SCT060 SCT250=



Latest METAR

330
SAUS70 KWBC 301800 RRG
MTRPDK
METAR KPDK 301753Z 33005KT 10SM BKN045 BKN070 34/22 A3000 RMK AO2 SLP135
T03390222 10350 20261 58007


USA.gov is the U.S. government's official web portal to all federal, state and local government web resources and services.